Bennington, New Hampshire
Current Conditions -  °F | °C
As of 2:52 AM on Friday 31 Oct 2014 (Local Time) from KAFN Reporting Station
Few Clouds Few Clouds  
Wind Chill: 35°   Ceiling: Unl
Heat Index: 35°   Visibility: 10mi
Dew Point: 34°   Wind: 3mph
Humidity: 96%   Direction: 170°S
Pressure: 30"   Gusts: NA
Location:  43°N, 71.92°W
Report Text: KAFN 310652Z AUTO 17003KT 10SM FEW048 02/01 A3000 RMK AO2 SLP171 T00170011
Loading
Personal Weather Stations






























Interactive Weather Map
Tropical Storm Tracking
New forecast layout! Learn more

10-Day Weather Forecast

Advertisements
Track Severe Weather on mobile